Time;durP1;ratioP1;P1;durP2;ratioP2;P2;SDS_P1;SDS_P2;PMS_P1;PMS_P2;Temp;Humidity;BMP_temperature;BMP_pressure;BME280_temperature;BME280_humidity;BME280_pressure;Samples;Min_cycle;Max_cycle;Signal;HPM_P1;HPM_P2
2022/08/11 00:01:48;;;;;;;18.60;8.70;;;24.20;45.90;;;;;;4941573;28;20546;-74
2022/08/11 00:04:16;;;;;;;13.10;6.40;;;24.20;45.70;;;;;;4947109;29;20106;-74
2022/08/11 00:06:46;;;;;;;15.10;5.20;;;24.30;47.00;;;;;;4950622;29;20047;-73
2022/08/11 00:09:15;;;;;;;;;;;24.40;45.70;;;;;;4950463;29;20023;-75
2022/08/11 00:11:48;;;;;;;8.65;3.33;;;24.40;45.00;;;;;;4955356;28;19918;-75
2022/08/11 00:14:20;;;;;;;7.13;3.17;;;24.30;45.20;;;;;;4947116;28;20480;-75
2022/08/11 00:17:03;;;;;;;6.25;3.20;;;24.30;45.30;;;;;;4949940;29;20647;-75
2022/08/11 00:19:33;;;;;;;5.85;2.75;;;24.20;45.10;;;;;;4937621;29;20031;-75
2022/08/11 00:22:00;;;;;;;11.45;2.65;;;24.30;45.40;;;;;;4980351;23;20248;-77
2022/08/11 00:24:33;;;;;;;8.38;3.15;;;24.20;45.10;;;;;;4943717;28;20022;-78
2022/08/11 00:26:59;;;;;;;6.97;3.25;;;24.20;45.30;;;;;;4965016;28;20027;-79
2022/08/11 00:29:26;;;;;;;6.18;2.80;;;24.20;45.80;;;;;;4975702;28;20190;-78
2022/08/11 00:31:55;;;;;;;7.68;3.20;;;24.20;45.40;;;;;;4969865;28;20027;-79
2022/08/11 00:34:27;;;;;;;5.25;2.65;;;24.20;45.70;;;;;;4944148;28;20027;-80
2022/08/11 00:37:01;;;;;;;10.05;3.00;;;24.20;45.30;;;;;;4965913;28;20066;-79
2022/08/11 00:39:28;;;;;;;7.55;2.75;;;24.20;45.50;;;;;;4968557;28;20015;-79
2022/08/11 00:42:09;;;;;;;6.63;2.22;;;24.20;45.50;;;;;;4957730;28;20145;-79
2022/08/11 00:44:51;;;;;;;3.80;2.10;;;24.20;45.20;;;;;;4969326;28;20086;-79
2022/08/11 00:47:32;;;;;;;7.45;2.58;;;24.20;45.40;;;;;;4956365;28;20045;-79
2022/08/11 00:50:02;;;;;;;4.40;2.00;;;24.20;45.80;;;;;;4969865;28;20106;-79
2022/08/11 00:52:52;;;;;;;4.05;2.08;;;24.20;45.60;;;;;;4970922;28;20479;-79
2022/08/11 00:55:36;;;;;;;;;;;24.10;45.40;;;;;;4970288;28;20069;-79
2022/08/11 00:58:05;;;;;;;4.53;2.20;;;24.10;45.60;;;;;;4968793;28;19914;-78
2022/08/11 01:01:05;;;;;;;11.00;2.35;;;24.20;45.60;;;;;;4973136;28;20444;-79
2022/08/11 01:03:42;;;;;;;3.72;1.65;;;24.10;45.60;;;;;;4972056;28;20033;-79
2022/08/11 01:06:11;;;;;;;4.07;1.80;;;24.10;45.30;;;;;;4963731;28;20034;-77
2022/08/11 01:09:10;;;;;;;4.40;1.90;;;24.10;45.40;;;;;;4972258;28;20035;-79
2022/08/11 01:11:56;;;;;;;8.27;1.98;;;24.10;45.40;;;;;;4970249;28;20031;-77
2022/08/11 01:14:59;;;;;;;5.18;1.50;;;24.10;45.50;;;;;;4957905;28;20022;-80
2022/08/11 01:18:02;;;;;;;3.92;1.55;;;24.10;45.30;;;;;;4963146;28;20062;-78
2022/08/11 01:20:40;;;;;;;5.75;1.77;;;24.10;45.50;;;;;;4972499;28;20031;-80
2022/08/11 01:23:24;;;;;;;9.10;2.03;;;24.10;45.40;;;;;;4972125;28;20030;-79
2022/08/11 01:26:01;;;;;;;6.78;2.00;;;24.00;45.30;;;;;;4979573;28;20541;-78
2022/08/11 01:28:47;;;;;;;6.43;1.77;;;24.00;45.70;;;;;;4970022;28;20479;-78
2022/08/11 01:31:48;;;;;;;5.78;1.77;;;24.00;45.70;;;;;;4972142;28;21341;-79
2022/08/11 01:34:13;;;;;;;7.47;1.80;;;24.00;45.60;;;;;;4963985;28;20026;-78
2022/08/11 01:37:12;;;;;;;4.43;1.75;;;24.00;45.70;;;;;;4971044;28;20038;-79
2022/08/11 01:40:16;;;;;;;6.33;1.97;;;24.00;45.90;;;;;;4953892;28;20030;-80
2022/08/11 01:46:31;;;;;;;48.85;34.08;;;24.00;45.70;;;;;;4973354;28;20030;-78
2022/08/11 01:49:12;;;;;;;34.17;18.20;;;24.00;45.70;;;;;;4972806;28;20483;-80
2022/08/11 01:52:06;;;;;;;18.85;11.45;;;24.00;45.60;;;;;;4975057;28;20030;-78
2022/08/11 01:54:34;;;;;;;9.70;4.80;;;24.00;45.80;;;;;;4957236;28;20495;-78
2022/08/11 01:57:28;;;;;;;20.15;4.05;;;24.00;45.40;;;;;;4974174;28;20027;-78
2022/08/11 02:00:18;;;;;;;6.40;2.88;;;24.00;45.40;;;;;;4987553;28;20043;-78
2022/08/11 02:03:09;;;;;;;8.25;2.55;;;24.00;45.30;;;;;;4972026;28;20563;-79
2022/08/11 02:09:54;;;;;;;6.20;2.50;;;23.90;45.30;;;;;;4908614;29;20039;-79
2022/08/11 02:12:44;;;;;;;6.40;2.30;;;23.90;45.20;;;;;;4908775;29;20028;-78
2022/08/11 02:15:38;;;;;;;6.45;2.65;;;23.90;45.30;;;;;;4944328;28;20510;-79
2022/08/11 02:18:20;;;;;;;9.48;2.40;;;23.90;45.40;;;;;;4974651;28;20041;-79
2022/08/11 02:24:02;;;;;;;5.73;2.00;;;23.90;45.60;;;;;;4973621;28;20081;-79
2022/08/11 02:26:38;;;;;;;11.50;2.30;;;23.90;45.30;;;;;;4973511;28;20027;-79
2022/08/11 02:29:26;;;;;;;4.35;2.10;;;23.90;45.30;;;;;;4968123;28;20388;-79
2022/08/11 02:34:46;;;;;;;4.10;1.90;;;23.90;45.30;;;;;;4964326;28;20093;-79
2022/08/11 02:37:30;;;;;;;4.20;2.00;;;23.90;45.40;;;;;;4966650;28;20023;-79
2022/08/11 02:40:09;;;;;;;11.38;2.17;;;23.80;45.30;;;;;;4973934;28;20098;-79
2022/08/11 02:42:43;;;;;;;7.60;2.13;;;23.80;45.50;;;;;;4948783;29;20027;-79
2022/08/11 02:45:18;;;;;;;4.03;1.63;;;23.80;45.40;;;;;;4965214;28;20027;-79
2022/08/11 02:51:18;;;;;;;4.25;1.95;;;23.80;45.40;;;;;;4973844;28;20080;-78
2022/08/11 02:54:14;;;;;;;4.28;1.80;;;23.80;45.30;;;;;;4980329;28;20035;-79
2022/08/11 02:56:53;;;;;;;6.05;1.70;;;23.80;45.40;;;;;;4972031;28;20069;-78
2022/08/11 02:59:50;;;;;;;4.70;2.17;;;23.80;45.40;;;;;;4967766;28;20027;-79
2022/08/11 03:02:51;;;;;;;4.25;2.38;;;23.80;45.40;;;;;;4960250;28;20069;-78
2022/08/11 03:05:24;;;;;;;4.00;2.22;;;23.80;45.50;;;;;;4965870;28;20038;-79
2022/08/11 03:08:18;;;;;;;8.50;2.50;;;23.80;45.40;;;;;;4972541;28;20078;-79
2022/08/11 03:16:43;;;;;;;7.20;2.25;;;23.80;45.50;;;;;;4952289;28;20081;-79
2022/08/11 03:17:14;;;;;;;5.28;2.03;;;23.70;45.60;;;;;;4967441;28;20074;-79
2022/08/11 03:19:55;;;;;;;6.80;2.13;;;23.70;45.60;;;;;;4910079;29;20110;-78
2022/08/11 03:22:28;;;;;;;5.97;2.15;;;23.70;45.50;;;;;;4966552;28;20053;-78
2022/08/11 03:24:57;;;;;;;6.82;2.13;;;23.70;45.60;;;;;;4972409;28;20099;-78
2022/08/11 03:27:28;;;;;;;11.00;2.42;;;23.70;45.60;;;;;;4972285;28;20534;-79
2022/08/11 03:30:09;;;;;;;7.10;2.40;;;23.70;45.50;;;;;;4972310;28;20030;-79
2022/08/11 03:34:00;;;;;;;6.68;2.10;;;23.70;45.50;;;;;;4957680;28;20027;-78
2022/08/11 03:35:48;;;;;;;6.45;2.35;;;23.70;45.50;;;;;;4971646;28;20023;-78
2022/08/11 03:38:16;;;;;;;4.50;1.88;;;23.70;45.60;;;;;;4964924;28;20121;-78
2022/08/11 03:44:08;;;;;;;9.25;2.65;;;23.70;45.60;;;;;;4922104;28;20065;-79
2022/08/11 03:47:16;;;;;;;5.88;2.25;;;23.70;45.60;;;;;;4972215;28;20050;-79
2022/08/11 03:50:06;;;;;;;5.55;2.50;;;23.70;45.60;;;;;;4962353;28;20077;-79
2022/08/11 03:53:04;;;;;;;7.60;2.15;;;23.70;45.60;;;;;;4936537;28;20116;-79
2022/08/11 03:55:55;;;;;;;6.03;2.60;;;23.70;45.70;;;;;;4973610;28;20019;-79
2022/08/11 03:58:45;;;;;;;9.00;2.75;;;23.70;45.80;;;;;;4972027;28;20026;-80
2022/08/11 04:01:27;;;;;;;;;;;23.70;45.80;;;;;;4965452;28;20117;-80
2022/08/11 04:04:34;;;;;;;5.22;2.17;;;23.60;45.70;;;;;;4971975;28;19917;-79
2022/08/11 04:07:39;;;;;;;5.05;2.30;;;23.70;45.80;;;;;;4970043;28;20039;-79
2022/08/11 04:10:35;;;;;;;7.85;2.33;;;23.70;45.80;;;;;;4961960;28;20038;-79
2022/08/11 04:13:39;;;;;;;9.25;2.30;;;23.60;45.80;;;;;;4971647;28;20042;-79
2022/08/11 04:16:37;;;;;;;6.50;3.00;;;23.60;45.80;;;;;;4971965;28;20479;-79
2022/08/11 04:19:03;;;;;;;5.97;2.63;;;23.60;45.90;;;;;;4968307;28;20130;-80
2022/08/11 04:21:43;;;;;;;7.55;3.05;;;23.60;46.00;;;;;;4972577;28;20118;-80
2022/08/11 04:24:39;;;;;;;7.70;3.58;;;23.50;46.00;;;;;;4964771;28;20026;-78
2022/08/11 04:27:19;;;;;;;13.90;3.90;;;23.50;46.10;;;;;;4972355;28;20015;-78
2022/08/11 04:30:21;;;;;;;9.82;3.97;;;23.50;46.20;;;;;;4976549;28;20097;-79
2022/08/11 04:33:23;;;;;;;7.88;3.63;;;23.50;46.20;;;;;;4976169;28;20031;-79
2022/08/11 04:36:01;;;;;;;7.47;3.58;;;23.50;46.30;;;;;;4973477;28;20125;-79
2022/08/11 04:38:37;;;;;;;9.65;3.42;;;23.50;46.30;;;;;;4976237;28;20027;-79
2022/08/11 04:41:26;;;;;;;9.73;3.25;;;23.50;46.40;;;;;;4972874;28;20059;-79
2022/08/11 04:44:16;;;;;;;9.77;4.38;;;23.50;46.50;;;;;;4976214;28;20045;-78
2022/08/11 04:47:00;;;;;;;7.78;4.38;;;23.50;46.50;;;;;;4974068;28;20031;-78
2022/08/11 05:02:50;;;;;;;7.80;2.90;;;23.40;46.80;;;;;;4953485;28;20040;-78
2022/08/11 05:05:32;;;;;;;9.88;3.50;;;23.40;46.80;;;;;;4971612;28;20087;-78
2022/08/11 05:08:13;;;;;;;10.07;3.28;;;23.50;46.90;;;;;;4965454;28;20545;-78
2022/08/11 05:10:50;;;;;;;9.95;3.80;;;23.40;46.90;;;;;;4974968;28;20114;-78
2022/08/11 05:36:53;;;;;;;7.88;3.83;;;23.50;46.90;;;;;;4969072;28;20085;-78
2022/08/11 05:56:19;;;;;;;9.20;4.20;;;23.50;47.20;;;;;;4958553;28;20023;-79
2022/08/11 05:58:53;;;;;;;13.95;5.03;;;23.50;47.30;;;;;;4974550;28;20031;-79
2022/08/11 06:01:33;;;;;;;9.40;4.63;;;23.50;47.30;;;;;;4973971;28;20038;-79
2022/08/11 06:04:13;;;;;;;;;;;23.40;47.30;;;;;;4975085;28;20030;-79
2022/08/11 06:06:45;;;;;;;8.75;4.78;;;23.50;47.40;;;;;;4961515;28;20281;-80
2022/08/11 06:09:13;;;;;;;13.35;5.15;;;23.50;47.40;;;;;;4957931;28;20034;-79
2022/08/11 06:11:41;;;;;;;13.02;5.82;;;23.50;47.40;;;;;;4983106;28;20054;-80
2022/08/11 06:14:09;;;;;;;16.30;5.47;;;23.60;47.40;;;;;;4968756;28;20027;-79
2022/08/11 06:16:36;;;;;;;12.18;4.97;;;23.50;47.50;;;;;;4967964;28;20062;-79
2022/08/11 06:19:04;;;;;;;16.40;5.55;;;23.50;47.60;;;;;;4973301;28;20054;-78
2022/08/11 06:21:35;;;;;;;15.02;5.18;;;23.50;47.40;;;;;;4981250;23;20019;-70
2022/08/11 06:24:10;;;;;;;10.45;4.70;;;23.60;47.70;;;;;;4958780;28;20383;-72
2022/08/11 06:26:37;;;;;;;7.85;4.22;;;23.60;47.60;;;;;;4973347;28;20057;-72
2022/08/11 06:29:04;;;;;;;14.85;5.03;;;23.60;47.60;;;;;;4957003;28;20121;-72
2022/08/11 06:31:32;;;;;;;9.57;4.88;;;23.70;47.60;;;;;;4969153;28;20382;-72
2022/08/11 06:34:07;;;;;;;14.07;5.30;;;23.70;47.60;;;;;;4968117;28;20114;-72
2022/08/11 06:36:37;;;;;;;14.93;5.55;;;23.70;47.70;;;;;;4969583;28;20027;-72
2022/08/11 06:39:27;;;;;;;12.27;5.65;;;23.70;47.60;;;;;;4965038;28;20046;-72
2022/08/11 06:42:05;;;;;;;10.52;4.72;;;23.70;47.60;;;;;;4981447;28;20034;-72
2022/08/11 06:45:19;;;;;;;12.00;5.20;;;23.70;47.50;;;;;;4980905;28;20027;-72
2022/08/11 06:47:46;;;;;;;11.77;4.53;;;23.70;47.90;;;;;;4985604;28;20026;-72
2022/08/11 06:53:05;;;;;;;7.45;3.65;;;23.80;47.50;;;;;;4980463;28;20030;-72
2022/08/11 07:01:11;;;;;;;11.32;4.65;;;23.90;47.60;;;;;;4982787;28;20122;-70
2022/08/11 07:03:56;;;;;;;10.70;4.25;;;23.90;48.10;;;;;;4958557;28;20554;-71
2022/08/11 07:06:43;;;;;;;12.35;4.45;;;23.90;48.10;;;;;;4958004;28;20058;-71
2022/08/11 07:15:40;;;;;;;9.73;4.15;;;24.00;48.10;;;;;;4979371;28;20053;-71
2022/08/11 07:29:32;;;;;;;7.80;3.38;;;24.10;48.20;;;;;;4979178;28;20502;-71
2022/08/11 07:32:05;;;;;;;8.43;3.60;;;24.20;48.50;;;;;;4957244;28;20035;-71
2022/08/11 07:34:35;;;;;;;9.95;3.67;;;24.20;48.20;;;;;;4958034;28;20027;-70
2022/08/11 07:37:12;;;;;;;7.53;3.63;;;24.20;48.50;;;;;;4990667;28;20030;-70
2022/08/11 07:39:40;;;;;;;10.50;4.32;;;24.20;48.60;;;;;;4964828;28;20464;-71
2022/08/11 07:42:09;;;;;;;9.30;3.72;;;24.20;48.70;;;;;;4956123;28;20486;-71
2022/08/11 07:48:10;;;;;;;10.13;4.30;;;24.30;48.60;;;;;;4972971;28;20026;-70
2022/08/11 07:52:58;;;;;;;8.85;3.70;;;24.40;48.70;;;;;;4981717;28;20031;-70
2022/08/11 07:55:26;;;;;;;9.10;4.20;;;24.30;48.60;;;;;;4960669;28;20373;-70
2022/08/11 08:20:02;;;;;;;9.05;3.53;;;24.40;48.30;;;;;;4979682;28;20027;-70
2022/08/11 08:22:28;;;;;;;8.15;3.40;;;24.30;48.30;;;;;;4959186;28;20128;-70
2022/08/11 08:24:55;;;;;;;9.32;3.72;;;24.50;48.20;;;;;;4979590;28;20497;-69
2022/08/11 08:27:24;;;;;;;18.77;3.72;;;24.50;48.10;;;;;;4994110;28;20022;-70
2022/08/11 08:32:40;;;;;;;8.52;4.10;;;24.60;48.30;;;;;;4978974;28;20550;-70
2022/08/11 08:35:09;;;;;;;9.77;3.97;;;24.60;48.10;;;;;;4978900;28;20403;-70
2022/08/11 08:37:34;;;;;;;8.43;3.35;;;24.60;47.90;;;;;;4994738;28;20102;-70
2022/08/11 08:40:01;;;;;;;7.88;3.70;;;24.60;47.70;;;;;;4979373;28;20098;-71
2022/08/11 08:42:29;;;;;;;10.57;3.10;;;24.70;47.70;;;;;;4994769;28;20022;-70
2022/08/11 08:45:04;;;;;;;6.90;3.13;;;24.70;47.60;;;;;;4979336;28;20046;-70
2022/08/11 08:47:34;;;;;;;6.68;3.20;;;24.70;47.50;;;;;;4993279;28;20470;-71
2022/08/11 08:50:04;;;;;;;9.38;3.50;;;24.70;47.30;;;;;;4961876;28;20027;-70
2022/08/11 08:52:39;;;;;;;8.45;3.75;;;24.80;47.20;;;;;;4993460;28;20027;-71
2022/08/11 08:55:06;;;;;;;9.80;3.58;;;24.80;47.10;;;;;;4978819;28;20023;-71
2022/08/11 08:57:35;;;;;;;7.20;3.05;;;24.80;47.00;;;;;;4987724;28;20101;-71
2022/08/11 09:00:03;;;;;;;8.25;3.20;;;24.80;46.90;;;;;;4986230;28;20450;-71
2022/08/11 09:02:29;;;;;;;8.23;3.00;;;24.80;46.80;;;;;;4987995;28;20031;-71
2022/08/11 09:04:57;;;;;;;8.77;3.60;;;24.80;46.70;;;;;;4985303;28;20037;-71
2022/08/11 09:07:25;;;;;;;15.27;3.92;;;24.90;46.60;;;;;;4987909;28;20019;-71
2022/08/11 09:09:55;;;;;;;11.00;3.47;;;24.90;46.60;;;;;;4984736;28;20035;-71
2022/08/11 09:12:25;;;;;;;;;;;24.90;46.60;;;;;;4988928;28;20019;-71
2022/08/11 09:15:02;;;;;;;;;;;24.90;46.40;;;;;;4984932;28;20019;-71
2022/08/11 09:17:45;;;;;;;10.57;3.97;;;24.90;46.40;;;;;;4970452;28;19927;-71
2022/08/11 09:20:28;;;;;;;10.18;3.97;;;25.00;46.20;;;;;;4987294;28;20062;-71
2022/08/11 09:28:29;;;;;;;11.35;3.63;;;25.00;46.20;;;;;;4983377;28;20478;-71
2022/08/11 09:30:59;;;;;;;11.35;3.63;;;25.00;46.10;;;;;;4979462;28;20023;-71
2022/08/11 09:33:27;;;;;;;11.88;3.45;;;25.00;46.10;;;;;;4994651;28;20026;-71
2022/08/11 09:35:55;;;;;;;13.90;3.53;;;25.00;46.00;;;;;;4978688;28;20557;-70
2022/08/11 09:41:10;;;;;;;10.65;3.30;;;25.00;45.90;;;;;;4975319;28;20058;-70
2022/08/11 09:46:27;;;;;;;5.72;2.63;;;25.00;45.50;;;;;;4977163;28;20483;-70
2022/08/11 09:48:57;;;;;;;10.77;3.15;;;25.00;45.20;;;;;;4966723;28;20069;-70
2022/08/11 09:51:27;;;;;;;5.72;2.90;;;25.00;44.90;;;;;;4988056;28;20410;-70
2022/08/11 09:53:53;;;;;;;8.18;3.35;;;25.00;44.70;;;;;;4975194;28;20030;-70
2022/08/11 09:59:07;;;;;;;7.63;2.75;;;25.10;44.90;;;;;;4987886;28;20441;-70
2022/08/11 10:01:41;;;;;;;5.53;3.08;;;25.10;44.90;;;;;;4989923;28;20037;-70
2022/08/11 10:04:16;;;;;;;9.32;3.13;;;25.10;44.80;;;;;;4983851;28;20377;-70
2022/08/11 10:07:02;;;;;;;10.57;3.28;;;25.10;45.20;;;;;;4958732;28;20053;-70
2022/08/11 10:09:39;;;;;;;11.15;2.80;;;25.10;44.90;;;;;;4982230;28;20361;-70
2022/08/11 10:12:13;;;;;;;18.55;4.38;;;25.20;44.90;;;;;;4989622;28;20510;-70
2022/08/11 10:17:31;;;;;;;12.93;2.93;;;25.20;44.10;;;;;;4981913;28;20031;-71
2022/08/11 10:19:57;;;;;;;;;;;25.20;45.10;;;;;;4977044;28;20712;-72
2022/08/11 10:27:58;;;;;;;7.30;2.60;;;25.30;43.90;;;;;;4966951;28;20042;-71
2022/08/11 10:35:58;;;;;;;6.68;3.42;;;25.40;45.10;;;;;;4973430;28;20023;-72
2022/08/11 10:38:25;;;;;;;6.70;3.00;;;25.40;44.70;;;;;;4974186;28;20030;-72
2022/08/11 10:43:01;;;;;;;6.32;3.08;;;25.30;43.90;;;;;;4974096;28;20046;-72
2022/08/11 10:43:40;;;;;;;15.13;3.38;;;25.30;43.50;;;;;;4974071;28;20038;-72
2022/08/11 10:48:56;;;;;;;8.77;3.65;;;25.30;43.10;;;;;;4978789;28;20048;-73
2022/08/11 10:59:46;;;;;;;11.27;4.85;;;25.40;42.80;;;;;;4988984;28;20041;-74
2022/08/11 11:02:13;;;;;;;9.07;4.18;;;25.40;42.80;;;;;;4962103;28;20394;-74
2022/08/11 11:04:51;;;;;;;6.90;3.92;;;25.50;42.90;;;;;;4980269;28;20030;-74
2022/08/11 11:07:23;;;;;;;9.30;4.22;;;25.40;43.00;;;;;;4972938;28;20038;-74
2022/08/11 11:09:54;;;;;;;10.82;4.05;;;25.50;43.00;;;;;;4976937;28;20029;-74
2022/08/11 11:18:24;;;;;;;6.82;3.67;;;25.60;41.30;;;;;;4967969;28;20038;-74
2022/08/11 11:21:04;;;;;;;12.25;3.80;;;25.60;42.00;;;;;;4982305;28;20495;-74
2022/08/11 11:23:54;;;;;;;9.18;3.38;;;25.60;41.30;;;;;;4986626;28;20050;-74
2022/08/11 11:26:38;;;;;;;10.82;4.38;;;25.70;40.60;;;;;;4980404;28;20034;-74
2022/08/11 11:29:43;;;;;;;9.38;3.42;;;25.80;41.10;;;;;;4976985;28;20049;-73
2022/08/11 11:32:34;;;;;;;6.63;3.35;;;25.70;40.40;;;;;;4984598;28;20081;-75
2022/08/11 11:35:14;;;;;;;9.70;3.05;;;25.60;40.80;;;;;;4967835;28;20023;-73
2022/08/11 11:37:43;;;;;;;8.07;3.35;;;25.60;40.90;;;;;;4984452;28;20030;-74
2022/08/11 11:40:14;;;;;;;7.10;3.15;;;25.60;40.80;;;;;;4992974;28;20018;-74
2022/08/11 11:42:42;;;;;;;7.07;3.25;;;25.50;41.40;;;;;;4988899;28;20493;-72
2022/08/11 11:45:09;;;;;;;7.15;3.10;;;25.60;41.50;;;;;;4982907;28;20026;-73
2022/08/11 11:47:37;;;;;;;7.47;2.92;;;25.60;41.20;;;;;;4939657;28;20089;-73
2022/08/11 11:50:07;;;;;;;5.85;2.58;;;25.60;41.70;;;;;;4969630;28;20031;-73
2022/08/11 11:52:34;;;;;;;6.20;3.28;;;25.70;41.00;;;;;;4972553;28;20376;-72
2022/08/11 11:55:01;;;;;;;6.60;3.25;;;25.70;41.10;;;;;;4972792;28;20085;-72
2022/08/11 12:03:00;;;;;;;6.63;3.03;;;25.80;41.00;;;;;;4976814;28;20142;-72
2022/08/11 12:05:27;;;;;;;8.48;3.00;;;25.90;41.00;;;;;;4979183;28;20054;-72
2022/08/11 12:08:15;;;;;;;6.65;3.13;;;25.90;40.80;;;;;;4976078;28;20031;-72
2022/08/11 12:13:39;;;;;;;6.13;2.53;;;25.80;39.70;;;;;;4978367;28;20452;-73
2022/08/11 12:16:10;;;;;;;7.43;3.00;;;25.70;39.20;;;;;;4958665;28;20097;-73
2022/08/11 12:18:37;;;;;;;9.75;2.75;;;25.60;39.10;;;;;;4973379;28;20089;-73
2022/08/11 12:21:04;;;;;;;8.32;2.67;;;25.60;40.10;;;;;;4978336;28;20113;-73
2022/08/11 12:29:04;;;;;;;11.82;6.15;;;25.70;40.20;;;;;;4969471;28;20038;-71
2022/08/11 12:31:32;;;;;;;12.25;5.32;;;25.80;40.00;;;;;;4952822;28;20212;-72
2022/08/11 12:34:13;;;;;;;8.80;4.18;;;25.90;39.90;;;;;;4969179;28;20153;-72
2022/08/11 12:36:56;;;;;;;8.60;4.10;;;25.90;39.90;;;;;;4935864;28;20030;-71
2022/08/11 12:53:26;;;;;;;5.83;3.00;;;25.80;38.80;;;;;;4974797;28;20039;-71
2022/08/11 12:58:41;;;;;;;10.23;2.40;;;25.80;38.90;;;;;;4975792;28;20105;-71
2022/08/11 13:06:39;;;;;;;6.53;2.40;;;25.90;38.10;;;;;;4957583;28;20039;-72
2022/08/11 13:09:08;;;;;;;4.95;2.42;;;25.90;37.60;;;;;;4975208;28;20438;-72
2022/08/11 13:14:21;;;;;;;6.65;2.70;;;25.90;37.90;;;;;;4974161;28;20518;-72
2022/08/11 13:19:33;;;;;;;7.78;3.38;;;26.00;38.00;;;;;;4975416;28;20042;-72
2022/08/11 13:22:01;;;;;;;6.22;2.50;;;26.10;37.50;;;;;;4957874;28;20403;-71
2022/08/11 13:24:27;;;;;;;4.40;2.40;;;26.10;37.60;;;;;;4975228;28;20039;-72
2022/08/11 13:26:54;;;;;;;4.65;2.63;;;26.20;37.50;;;;;;4974309;28;20027;-72
2022/08/11 13:29:28;;;;;;;11.40;3.03;;;26.10;37.10;;;;;;4975191;28;20082;-72
2022/08/11 13:31:57;;;;;;;6.68;2.88;;;26.00;37.30;;;;;;4960795;28;20046;-72
2022/08/11 13:34:25;;;;;;;6.85;2.58;;;26.00;37.40;;;;;;4955933;29;20445;-71
2022/08/11 13:36:54;;;;;;;4.97;2.47;;;25.90;37.30;;;;;;4921971;29;20400;-73
2022/08/11 13:39:22;;;;;;;4.85;2.63;;;26.00;37.00;;;;;;4946165;28;20478;-71
2022/08/11 13:41:48;;;;;;;6.45;2.45;;;25.90;38.80;;;;;;4974551;28;20038;-72
2022/08/11 13:44:16;;;;;;;8.50;2.78;;;26.00;37.80;;;;;;4974726;28;20501;-72
2022/08/11 13:46:43;;;;;;;8.45;2.38;;;26.00;38.20;;;;;;4973924;28;20035;-71
2022/08/11 13:49:10;;;;;;;8.05;2.80;;;25.90;38.60;;;;;;4956215;28;20026;-72
2022/08/11 13:51:38;;;;;;;7.53;2.40;;;25.90;39.00;;;;;;4942091;28;20038;-72
2022/08/11 13:54:12;;;;;;;8.15;2.42;;;26.00;38.60;;;;;;4947830;28;20137;-72
2022/08/11 13:56:41;;;;;;;4.55;2.40;;;26.10;38.50;;;;;;4973897;28;20480;-73
2022/08/11 13:59:07;;;;;;;4.97;2.40;;;26.00;39.00;;;;;;4933517;28;20042;-73
2022/08/11 14:01:38;;;;;;;6.53;2.65;;;26.00;39.40;;;;;;4968300;28;20081;-71
2022/08/11 14:04:21;;;;;;;9.68;4.88;;;26.00;39.30;;;;;;4974465;28;20035;-72
2022/08/11 14:06:52;;;;;;;19.98;9.73;;;25.90;39.20;;;;;;4954658;29;20031;-71
2022/08/11 14:09:25;;;;;;;11.52;6.03;;;25.90;38.90;;;;;;4955311;29;20555;-72
2022/08/11 14:14:41;;;;;;;5.53;2.70;;;26.00;38.20;;;;;;4960405;28;20521;-71
2022/08/11 14:17:08;;;;;;;4.72;2.85;;;26.00;37.00;;;;;;4967883;28;20297;-72
2022/08/11 14:19:41;;;;;;;4.82;3.00;;;26.00;37.20;;;;;;4974207;28;20195;-71
2022/08/11 14:22:10;;;;;;;7.00;3.30;;;26.00;37.50;;;;;;4974138;28;20030;-71
2022/08/11 14:24:39;;;;;;;8.13;2.55;;;26.00;37.30;;;;;;4927839;28;20121;-73
2022/08/11 14:27:10;;;;;;;9.23;2.35;;;26.00;36.60;;;;;;4938881;28;20061;-71
2022/08/11 14:29:38;;;;;;;8.00;1.83;;;26.00;36.50;;;;;;4962616;28;20365;-71
2022/08/11 14:32:10;;;;;;;6.07;1.85;;;26.10;35.80;;;;;;4956888;28;20023;-71
2022/08/11 14:34:41;;;;;;;3.90;2.05;;;26.00;35.30;;;;;;4965140;28;20051;-71
2022/08/11 14:37:14;;;;;;;7.05;2.05;;;25.90;36.10;;;;;;4973081;28;20073;-71
2022/08/11 14:39:49;;;;;;;11.68;2.20;;;26.00;35.40;;;;;;4955444;28;20054;-71
2022/08/11 14:47:53;;;;;;;;;;;26.00;36.50;;;;;;4974215;28;20107;-71
2022/08/11 14:50:23;;;;;;;4.95;2.00;;;26.20;35.20;;;;;;4974001;28;19957;-71
2022/08/11 14:52:53;;;;;;;11.70;2.70;;;26.20;35.30;;;;;;4956140;28;20106;-71
2022/08/11 14:58:14;;;;;;;6.28;2.45;;;26.20;34.50;;;;;;4973792;28;20031;-72
2022/08/11 15:00:41;;;;;;;8.70;2.58;;;26.20;35.50;;;;;;4972405;28;20554;-72
2022/08/11 15:03:11;;;;;;;5.65;2.00;;;26.20;35.20;;;;;;4973498;28;20076;-72
2022/08/11 15:05:57;;;;;;;7.28;2.20;;;26.20;35.00;;;;;;4968479;28;20031;-71
2022/08/11 15:08:53;;;;;;;4.97;1.98;;;26.30;34.90;;;;;;4967783;28;20117;-72
2022/08/11 15:13:59;;;;;;;6.45;1.75;;;26.30;34.80;;;;;;4973386;28;20059;-72
2022/08/11 15:19:12;;;;;;;5.32;1.52;;;26.30;34.50;;;;;;4959391;28;20106;-72
2022/08/11 15:24:23;;;;;;;19.48;4.28;;;26.60;33.60;;;;;;4934358;28;20113;-72
2022/08/11 15:38:00;;;;;;;3.58;1.50;;;26.70;34.20;;;;;;4964261;28;20553;-72
2022/08/11 15:46:29;;;;;;;4.07;1.58;;;26.50;33.00;;;;;;4907902;28;20043;-72
2022/08/11 15:49:01;;;;;;;3.03;1.23;;;26.50;33.10;;;;;;4969624;28;20035;-72
2022/08/11 15:51:35;;;;;;;9.25;3.42;;;26.40;32.00;;;;;;4969203;28;20470;-72
2022/08/11 15:54:15;;;;;;;8.68;4.07;;;26.40;32.60;;;;;;4969185;28;20070;-72
2022/08/11 15:56:43;;;;;;;3.25;1.92;;;26.30;34.50;;;;;;4948027;28;20039;-72
2022/08/11 16:04:46;;;;;;;4.97;2.10;;;26.30;33.70;;;;;;4969327;28;20034;-72
2022/08/11 16:07:14;;;;;;;4.45;2.03;;;26.30;33.50;;;;;;4966334;28;20050;-73
2022/08/11 16:09:51;;;;;;;8.47;1.97;;;26.30;33.60;;;;;;4965975;28;20117;-73
2022/08/11 16:12:30;;;;;;;6.40;2.10;;;26.20;33.80;;;;;;4964566;28;20682;-72
2022/08/11 16:17:53;;;;;;;3.38;2.05;;;26.20;33.80;;;;;;4963932;28;20022;-72
2022/08/11 16:20:22;;;;;;;6.18;2.28;;;26.10;33.70;;;;;;4966098;28;20019;-72
2022/08/11 16:22:50;;;;;;;5.63;2.08;;;26.10;33.50;;;;;;4953138;28;20050;-72
2022/08/11 16:25:22;;;;;;;6.50;2.13;;;26.10;33.70;;;;;;4967884;28;20027;-72
2022/08/11 16:27:58;;;;;;;4.53;1.48;;;26.10;34.20;;;;;;4972593;28;20035;-72
2022/08/11 16:30:26;;;;;;;2.65;1.60;;;26.20;32.50;;;;;;4971798;28;20022;-73
2022/08/11 16:32:53;;;;;;;3.40;1.50;;;26.10;32.70;;;;;;4973279;28;20394;-73
2022/08/11 16:40:55;;;;;;;2.75;1.70;;;26.10;32.50;;;;;;4954959;28;20438;-72
2022/08/11 16:49:03;;;;;;;4.32;2.17;;;26.10;32.10;;;;;;4971604;28;20542;-72
2022/08/11 16:51:30;;;;;;;3.22;1.70;;;26.20;32.70;;;;;;4939804;28;20032;-72
2022/08/11 16:53:56;;;;;;;7.55;1.70;;;26.20;32.20;;;;;;4969075;28;20035;-72
2022/08/11 16:56:32;;;;;;;3.10;1.70;;;26.20;32.00;;;;;;4954157;28;20035;-72
2022/08/11 16:59:16;;;;;;;3.60;2.13;;;26.20;32.40;;;;;;4969577;28;20110;-72
2022/08/11 17:01:56;;;;;;;3.28;1.80;;;26.10;32.60;;;;;;4954230;28;20033;-73
2022/08/11 17:13:07;;;;;;;6.47;1.80;;;26.10;33.30;;;;;;4968675;28;20395;-71
2022/08/11 17:18:39;;;;;;;8.48;1.90;;;26.00;32.50;;;;;;4970700;28;20475;-71
2022/08/11 17:21:32;;;;;;;8.55;1.63;;;25.90;34.20;;;;;;4973024;28;20035;-72
2022/08/11 17:24:09;;;;;;;4.63;1.77;;;25.80;32.30;;;;;;4952887;29;20130;-72
2022/08/11 17:26:57;;;;;;;7.78;1.70;;;25.80;32.60;;;;;;4937442;29;20062;-71
2022/08/11 17:29:28;;;;;;;3.65;1.70;;;25.90;32.00;;;;;;4955481;29;20036;-72
2022/08/11 17:37:29;;;;;;;5.00;1.60;;;25.90;32.30;;;;;;4954056;29;20459;-73
2022/08/11 17:39:58;;;;;;;6.00;1.52;;;25.90;31.90;;;;;;4938844;29;20023;-72
2022/08/11 17:50:48;;;;;;;3.92;2.00;;;25.90;32.80;;;;;;4955873;29;20023;-72
2022/08/11 18:01:38;;;;;;;7.82;2.00;;;25.90;32.30;;;;;;4959872;28;20464;-72
2022/08/11 18:04:08;;;;;;;5.30;2.45;;;25.90;32.20;;;;;;4974792;28;20082;-71
2022/08/11 18:06:36;;;;;;;5.63;2.60;;;25.90;32.10;;;;;;4956694;28;20027;-71
